Flight Track Log - Related Links

Times and Time Zones

All times are in EST time to prevent confusion due to time zone crossing. See the N6198F flight status page for this flight to view local times or setup timezone preferences in your user account.


Time Position Orientation Groundspeed Altitude Reporting Facility
EST Latitude Longitude Course Direction KTS MPH feet Rate Location/Type
Fri 03:26:20 PM 34.5869 -86.7325 139° Southeast 90 104 3,000  Level Memphis Center
Fri 03:27:22 PM 34.5675 -86.7064 132° Southeast 96 110 3,100  Climbing Memphis Center
Fri 03:28:23 PM 34.5433 -86.6706 129° Southeast 106 122 3,000 -49 Descending Memphis Center
Fri 03:29:25 PM 34.5217 -86.6431 134° Southeast 110 127 3,000 -48 Level Memphis Center
Fri 03:30:00 PM 34.4903 -86.6221 139° Southeast  Level Estimated
Fri 03:30:27 PM 34.5003 -86.6147 132° Southeast 112 129 2,900  Level Memphis Center
Fri 03:31:00 PM 34.4658 -86.5967 139° Southeast  Level Estimated
Fri 03:31:29 PM 34.4792 -86.5886 134° Southeast 111 128 2,900  Level Memphis Center
Fri 03:32:30 PM 34.4558 -86.5664 142° Southeast 108 124 2,900  Level Memphis Center
Fri 03:33:32 PM 34.4281 -86.5494 153° Southeast 108 124 2,900  Level Memphis Center
Fri 03:35:00 PM 34.3920 -86.5123 140° Southeast  Level FlightAware Approximate
Fri 03:42:00 PM 34.2195 -86.3361 140° Southeast  Level FlightAware Approximate
Fri 03:43:00 PM 34.1947 -86.3112 140° Southeast  Level FlightAware Approximate
Fri 03:44:00 PM 34.1698 -86.2863 140° Southeast  Level FlightAware Approximate
Fri 03:45:00 PM 34.1450 -86.2615 140° Southeast  Level FlightAware Approximate
Fri 03:46:00 PM 34.1202 -86.2366 140° Southeast  Level FlightAware Approximate
Fri 03:47:00 PM 34.0953 -86.2118 140° Southeast  Level FlightAware Approximate
Fri 03:48:00 PM 34.0704 -86.1870 140° Southeast  Level FlightAware Approximate
Fri 03:49:00 PM 34.0456 -86.1622 140° Southeast  Level FlightAware Approximate
Fri 03:50:00 PM 34.0207 -86.1374 140° Southeast  Level FlightAware Approximate
Fri 03:51:00 PM 33.9959 -86.1126 140° Southeast  Level FlightAware Approximate
Fri 03:52:00 PM 33.9711 -86.0878 140° Southeast  Level FlightAware Approximate
Fri 03:53:00 PM 33.9667 -86.0833 140° Southeast  Level FlightAware Approximate
Fri 03:54:00 PM 33.9726 -86.0891 140° Southeast  Level Estimated
Fri 03:55:00 PM 33.9726 -86.0891 140° Southeast  Level Estimated
Fri 03:56:00 PM 33.9726 -86.0891 140° Southeast  Level Estimated
Fri 03:57:00 PM 33.9726 -86.0891 140° Southeast  Level Estimated
Fri 03:58:00 PM 33.9726 -86.0891 140° Southeast  Level Estimated
Fri 03:59:00 PM 33.9726 -86.0891 140° Southeast  Level Estimated
Fri 04:00:00 PM 33.9726 -86.0891 140° Southeast  Level Estimated
Fri 04:01:00 PM 33.9726 -86.0891 140° Southeast  Level Estimated
Fri 04:02:00 PM 33.9726 -86.0891 140° Southeast  Level Estimated
Fri 04:03:00 PM 33.9726 -86.0891 140° Southeast  Level Estimated
Fri 04:04:00 PM 33.9726 -86.0891 140° Southeast  Level Estimated
Fri 04:05:00 PM 33.9726 -86.0891 140° Southeast  Level Estimated
Fri 04:06:00 PM 33.9726 -86.0891 140° Southeast  Level Estimated

Login

Don't have an account? Register now (free) for customized features, flight alerts, and more!